Boulevard, CA (91905)

8:55 AM PDT on October 23, 2014 (GMT -0700)
MesoWest La Posta CA US SDGE | Change Station
CLOSE
Current Station
Personal Weather Station
Location: Boulevard, CA
Elevation: 4000 ft
Nearby Weather Stations

Elev 4000 ft 32.71 °N, 116.40 °W | Updated 11 hours ago

Clear
Clear
79 °F
Feels Like 79 °F
N
7
Wind Variable Wind from East
Gusts 8 mph

Today
High -- | Low -- °F
--% Chance of Precip.
Yesterday
High -- | Low -- °F
Precip. -- in
6:55 AM 6:03 PM
Waning Crescent, 0% visible
Pressure 29.98 in
Visibility -9999.0 miles
Clouds
Dew Point 34 °F
Humidity 19%
Rainfall -999.00 in
Snow Depth Not available.
UV Not available.
Pollen 3.80 out of 12
Air Quality Not available.
Flu Activity Sporadic
METAR KCZZ 231552Z AUTO 00000KT 20/M02 A3005 RMK AO1 SLP150 T02001022

More Conditions Fewer Conditions

Pressure 29.98 in
Visibility -9999.0 miles
Clouds
Dew Point 34 °F
Humidity 19%
Rainfall -999.00 in
Snow Depth Not available.
UV Not available.
Pollen 3.80 out of 12
Air Quality Not available.
Flu Activity Sporadic
METAR KCZZ 231552Z AUTO 00000KT 20/M02 A3005 RMK AO1 SLP150 T02001022

More Conditions Fewer Conditions

10-Day Weather Forecast

Almanac

Astronomy

Oct. 23, 2014 Rise Set
Actual Time 6:55 AM PDT 6:03 PM PDT
Civil Twilight 6:30 AM PDT 6:28 PM PDT
Nautical Twilight 6:01 AM PDT 6:56 PM PDT
Astronomical Twilight 5:32 AM PDT 7:25 PM PDT
Moon 6:40 AM PDT 6:07 PM PDT
Length of Visible Light 11h 57m
Length of Day
11h 07m
Tomorrow will be 1m 51s shorter.
Waning Crescent, 0% of the Moon is Illuminated
Today
Waning Crescent
Oct 23
New
Oct 30
First Quarter
Nov 6
Full
Nov 14
Last Quarter

Today's Extremes

State Highs State Lows

Community

WunderPhotos

Upload Photos

1,764,288 photos uploaded!

WunderBlogs® & News

Nearby

Snow Depth

Station Depth Elevation
Virginia Lakes Ridge 0 in 9200 ft
Leavitt Lake 1 in 9400 ft
Leavitt Meadows 1 in 7200 ft
Sonora Pass 0 in 8800 ft
Summit Meadow 1 in 9122 ft

Earthquake Activity

City Distance Mag. Time & Date
Alberto Oviedo Mota, Mexico 90 miles 3.5 9:05 PM PDT
2014-10-21
Delta, Mexico 65 miles 2.5 8:53 PM PDT
2014-10-21
Alberto Oviedo Mota, Mexico 76 miles 2.7 4:13 PM PDT
2014-10-21
Alberto Oviedo Mota, Mexico 74 miles 3.3 3:57 PM PDT
2014-10-21
Minimum magnitude displayed is 2.5.

Coastal Water Temperatures

Place Temperature
No Stations Reporting

Nearby Weather Stations